x

East Bahamas - 335 Nm East Of San Salvador Is, Bahamas (41046) Wave Buoy

7:50am - Sun 21st Sep 2014 All times are UTC.

  • Sig Wave height 4.3ft
  • Swell Direction
  • Peak Period 6s
  • Average Period 5s
  • Wind
    16mph, 18mph gusts
  • Sea Temp 84°f
  • Air Temp 83°f
  • Sea Pressure 1015.5mb

More Historic Weather Station data

Upgrade to MSW Pro to gain access to the past 30 days of data for over 8000 Wavebouys and Weather Stations around the globe.

Join Pro

Comparision Forecast

View Surf forecast
   
Sun 09/21 7:50am 4.5ft 6s 5s 16 18 mph 1015.5mb 84f 83f
6:50am 4.5ft 6s 5s 16 18 mph 1015.5mb 84f 83f
5:50am 4.5ft 7s 5s 16 18 mph 1016.2mb 84f 83f
4:50am 4.5ft 8s 5s 16 18 mph 1016.9mb 84f 83f
3:50am 4ft 7s 5s 16 18 mph 1017.1mb 84f 83f
2:50am 4ft 7s 5s 18 20 mph 1017.3mb 84f 84f
1:50am 4ft 6s 5s 16 20 mph 1017.4mb 84f 84f
12:50am 3.5ft 8s 5s 16 20 mph 1016.9mb 84f 83f
Sat 09/20 11:50pm 3.5ft 8s 5s 16 18 mph 1016.5mb 84f 84f
10:50pm 4ft 7s 5s 13 16 mph 1015.8mb 84f 84f
9:50pm 4ft 7s 5s 9 11 mph 1015.7mb 84f 83f
8:50pm 3.5ft 6s 5s 13 16 mph 1015.7mb 85f 83f
7:50pm 4.5ft 7s 5s 11 13 mph 1015.9mb 85f 83f
6:50pm 4ft 6s 5s 13 16 mph 1015.9mb 85f 84f
5:50pm 4ft 8s 5s 16 18 mph 1016.4mb 84f 83f
4:50pm 4ft 7s 5s 16 20 mph 1016.8mb 84f 83f
3:50pm 4.5ft 6s 5s 16 18 mph 1017.5mb 84f 83f
2:50pm 4.5ft 8s 5s 16 18 mph 1017.4mb 84f 83f
1:50pm 4.5ft 7s 5s 18 22 mph 1017.2mb 84f 83f
12:50pm 4.5ft 7s 5s 18 22 mph 1016.8mb 84f 83f
11:50am 4.5ft 5s 5s 16 18 mph 1016.4mb 84f 83f
10:50am 4ft 7s 5s 16 20 mph 1016mb 84f 82f
9:50am 3.5ft 9s 5s 20 25 mph 1015.6mb 84f 83f
8:50am 4ft 8s 5s 13 18 mph 1015.2mb 84f 83f
7:50am 4ft 8s 5s 13 18 mph 1014.9mb 85f 81f
6:50am 4ft 7s 5s 16 18 mph 1015mb 85f 83f
5:50am 4.5ft 7s 5s 16 20 mph 1015.8mb 85f 83f
4:50am 4ft 7s 5s 13 16 mph 1016.2mb 85f 83f
3:50am 4ft 7s 5s 16 18 mph 1016.5mb 85f 84f
2:50am 4ft 8s 6s 16 18 mph 1016.7mb 85f 83f
1:50am 4.5ft 8s 6s 16 18 mph 1016.7mb 85f 84f
12:50am 4ft 8s 6s 13 16 mph 1016.3mb 85f 84f
Fri 09/19 11:50pm 4ft 8s 6s 11 13 mph 1015.6mb 86f 84f
10:50pm 4ft 9s 6s 11 13 mph 1015.1mb 86f 84f
9:50pm 4ft 8s 6s 11 13 mph 1014.9mb 86f 85f
8:50pm 4.5ft 8s 7s 4 7 mph 1014.8mb 87f 84f
7:50pm 4.5ft 7s 6s 4 7 mph 1014.8mb 87f 84f
6:50pm 4.5ft 8s 6s 4 7 mph 1014.7mb 87f 84f
5:50pm 4.5ft 8s 6s 2 4 mph 1015.3mb 87f 84f
4:50pm 3.5ft 8s 6s 7 9 mph 1015.5mb 86f 84f
3:50pm 3ft 9s 6s 4 7 mph 1016.1mb 86f 83f
2:50pm 3ft 10s 6s 2 4 mph 1016.4mb 85f 84f
1:50pm 2.5ft 9s 5s  -  2 mph 1016.4mb 85f 84f
12:50pm 2.5ft 11s 6s  -  2 mph 1016mb 85f 85f
11:50am 2.5ft 9s 5s 2 4 mph 1015.6mb 84f 83f
10:50am 2.5ft 11s 6s 4
mph
1014.7mb 84f 82f
9:50am 2.5ft 9s 5s 9 11 mph 1014mb 84f 82f
8:50am 2.5ft 9s 5s 7 9 mph 1013.3mb 84f 82f
7:50am 2.5ft 8s 6s 7 9 mph 1013.1mb 84f 83f
6:50am 2.5ft 9s 5s 11 13 mph 1013.5mb 85f 83f
5:50am 2.5ft 9s 6s 9 11 mph 1014.3mb 85f 83f
4:50am 2.5ft 8s 6s 11 13 mph 1015.2mb 85f 83f
3:50am 3ft 9s 6s 9 11 mph 1015.7mb 85f 83f
2:50am 2.5ft 8s 6s 9 11 mph 1016.2mb 85f 83f
1:50am 3ft 8s 6s 7 9 mph 1015.8mb 85f 83f
12:50am 3ft 8s 7s 4
mph
1015.6mb 85f 83f
Thu 09/18 11:50pm 3ft 8s 6s 7 9 mph 1015.3mb 85f 83f
10:50pm 3ft 8s 6s 4 7 mph 1014.9mb 85f 83f
9:50pm 3.5ft 9s 6s 2
mph
1014.6mb 86f 84f
8:50pm 3ft 10s 6s 2 4 mph 1014.3mb 85f 85f
7:50pm 3.5ft 8s 6s 4 7 mph 1014mb 85f 84f
6:50pm 3ft 11s 6s 4 7 mph 1014mb 85f 83f
5:50pm 3.5ft 9s 6s 7 9 mph 1014.9mb 85f 83f
4:50pm 3.5ft 8s 6s 9 11 mph 1015.6mb 85f 83f
3:50pm 3.5ft 10s 6s 11
mph
1016.1mb 84f 83f
2:50pm 3.5ft 10s 6s 11 13 mph 1016.1mb 84f 83f
1:50pm 3.5ft 9s 6s 11 13 mph 1015.9mb 84f 83f
12:50pm 4ft 10s 6s 13 16 mph 1015.5mb 84f 83f
11:50am 4ft 11s 6s 13 16 mph 1015mb 84f 83f
10:50am 4.5ft 10s 7s 13
mph
1014.5mb 84f 83f
9:50am 4.5ft 10s 7s 11 13 mph 1013.9mb 84f 82f
8:50am 4.5ft 10s 7s 11 13 mph 1013.7mb 84f 82f
7:50am 4.5ft 9s 7s 11 13 mph 1013.8mb 84f 82f
6:50am 4ft 11s 7s 11 13 mph 1014.1mb 84f 82f
5:50am 4.5ft 10s 7s 11 13 mph 1014.9mb 84f 83f
4:50am 4.5ft 10s 7s 9 11 mph 1015.6mb 84f 83f
3:50am 4.5ft 9s 7s 11 13 mph 1015.9mb 84f 83f
2:50am 4.5ft 9s 7s 9 11 mph 1016.1mb 85f 83f
1:50am 4ft 10s 7s 4 7 mph 1015.9mb 85f 82f
12:50am 4ft 10s 7s 16 18 mph 1015.5mb 85f 81f
Wed 09/17 11:50pm 4ft 10s 7s 9 11 mph 1015.3mb 85f 83f
10:50pm 4.5ft 10s 7s 11 13 mph 1014.6mb 85f 83f
9:50pm 4.5ft 10s 7s 9 11 mph 1014.2mb 85f 84f
8:50pm 4ft 10s 7s 9 11 mph 1013.8mb 85f 84f
7:50pm 4ft 11s 7s 9 11 mph 1013.9mb 85f 83f
6:50pm 4.5ft 10s 7s 7 9 mph 1014.2mb 85f 83f
5:50pm 4.5ft 10s 7s 7 9 mph 1014.9mb 85f 83f
4:50pm 4.5ft 10s 7s 9 11 mph 1015.8mb 85f 83f
3:50pm 5ft 10s 8s 9 11 mph 1016.6mb 85f 83f
2:50pm 5ft 11s 8s 9 11 mph 1016.7mb 85f 83f
1:50pm 5ft 11s 8s 9 11 mph 1016.5mb 84f 83f
12:50pm 5ft 10s 8s 9
mph
1016mb 84f 83f
11:50am 5ft 9s 8s 7 9 mph 1015.3mb 84f 83f
10:50am 5.5ft 11s 9s 7 9 mph 1015mb 84f 82f
9:50am 6ft 9s 9s 2 4 mph 1015mb 84f 82f